Time;durP1;ratioP1;P1;durP2;ratioP2;P2;SDS_P1;SDS_P2;PMS_P1;PMS_P2;Temp;Humidity;BMP_temperature;BMP_pressure;BME280_temperature;BME280_humidity;BME280_pressure;Samples;Min_cycle;Max_cycle;Signal;HPM_P1;HPM_P2
2022/01/26 00:06:59;;;;;;;;;57.50;41.75;;;;;1.01;86.03;102562.44;5080924;27;45246;-69
2022/01/26 00:09:26;;;;;;;;;44.75;37.50;;;;;1.00;86.30;102558.94;5080450;28;45140;-71
2022/01/26 00:11:52;;;;;;;;;40.75;32.00;;;;;0.95;85.49;102552.75;5079692;27;45443;-72
2022/01/26 00:14:17;;;;;;;;;50.75;37.00;;;;;1.02;86.01;102570.25;5084503;28;45238;-64
2022/01/26 00:16:43;;;;;;;;;57.50;41.50;;;;;1.03;86.14;102573.72;5082388;28;45241;-68
2022/01/26 00:19:16;;;;;;;;;48.75;36.50;;;;;1.05;85.72;102568.56;5082468;27;45340;-70
2022/01/26 00:21:47;;;;;;;;;50.75;37.50;;;;;0.98;86.47;102555.44;5079317;27;47148;-69
2022/01/26 00:29:23;;;;;;;;;41.75;36.25;;;;;1.06;86.13;102571.22;5050438;28;45590;-69
2022/01/26 00:40:40;;;;;;;;;55.75;39.75;;;;;1.13;86.65;102573.19;5058544;28;45208;-72
2022/01/26 00:43:16;;;;;;;;;63.50;42.50;;;;;1.14;86.53;102574.94;5045656;28;45427;-70
2022/01/26 00:45:42;;;;;;;;;56.50;44.75;;;;;1.19;87.08;102574.19;5056117;28;45340;-67
2022/01/26 00:48:09;;;;;;;;;45.00;37.75;;;;;1.17;86.56;102572.44;5054317;28;45368;-70
2022/01/26 00:50:37;;;;;;;;;45.75;37.25;;;;;1.20;86.65;102578.56;5045177;28;45669;-70
2022/01/26 00:53:04;;;;;;;;;35.25;30.00;;;;;1.19;86.35;102574.19;5057916;28;45544;-69
2022/01/26 00:55:30;;;;;;;;;49.75;38.00;;;;;1.12;86.45;102565.38;5065684;28;45448;-66
2022/01/26 00:57:55;;;;;;;;;48.75;38.25;;;;;1.22;86.85;102572.59;5070695;28;45464;-69
2022/01/26 01:00:24;;;;;;;;;51.50;33.75;;;;;1.30;86.50;102573.72;5069201;28;45428;-68
2022/01/26 01:02:52;;;;;;;;;55.50;39.00;;;;;1.35;86.25;102578.16;5057290;28;45512;-65
2022/01/26 01:05:22;;;;;;;;;59.00;40.25;;;;;1.35;86.18;102579.03;5055456;28;45393;-64
2022/01/26 01:07:52;;;;;;;;;44.50;35.50;;;;;1.27;86.03;102559.75;5057395;28;45356;-69
2022/01/26 01:10:21;;;;;;;;;45.50;39.00;;;;;1.31;86.59;102562.50;5059514;28;45159;-69
2022/01/26 01:12:49;;;;;;;;;55.00;39.75;;;;;1.36;86.18;102561.75;5062079;28;46289;-69
2022/01/26 01:15:14;;;;;;;;;51.50;37.25;;;;;1.43;86.40;102558.53;5061320;28;45277;-70
2022/01/26 01:17:47;;;;;;;;;43.75;32.75;;;;;1.29;85.72;102533.06;5060375;28;45443;-69
2022/01/26 01:23:24;;;;;;;;;47.75;31.25;;;;;1.41;86.00;102555.88;5057080;28;45243;-65
2022/01/26 01:30:56;;;;;;;;;44.00;32.50;;;;;1.34;86.02;102568.63;5062185;28;45327;-69
2022/01/26 01:33:28;;;;;;;;;44.00;37.50;;;;;1.37;86.72;102574.75;5060920;28;47102;-61
2022/01/26 01:35:54;;;;;;;;;40.50;32.50;;;;;1.43;86.14;102572.34;5059341;28;45393;-66
2022/01/26 01:38:20;;;;;;;;;35.75;27.50;;;;;1.47;86.32;102568.16;5060953;28;45331;-66
2022/01/26 01:40:48;;;;;;;;;38.50;33.25;;;;;1.48;85.74;102569.91;5060125;28;45523;-66
2022/01/26 01:43:16;;;;;;;;;50.50;36.00;;;;;1.44;85.62;102563.72;5060020;28;46176;-67
2022/01/26 01:45:46;;;;;;;;;50.00;35.25;;;;;1.38;85.43;102567.88;5061403;28;45461;-68
2022/01/26 01:48:14;;;;;;;;;46.00;37.25;;;;;1.31;86.27;102572.88;5062792;28;45257;-69
2022/01/26 01:50:41;;;;;;;;;37.25;35.75;;;;;1.28;85.94;102575.38;5060529;28;45498;-67
2022/01/26 01:53:11;;;;;;;;;46.50;34.00;;;;;1.31;85.47;102580.66;5061276;28;46177;-64
2022/01/26 01:55:46;;;;;;;;;41.00;30.50;;;;;1.30;85.38;102573.72;5061773;28;45374;-70
2022/01/26 01:58:12;;;;;;;;;39.00;32.75;;;;;1.40;85.72;102584.38;5061978;28;45393;-68
2022/01/26 02:00:37;;;;;;;;;37.50;33.25;;;;;1.45;85.84;102581.06;5061492;28;45348;-68
2022/01/26 02:03:03;;;;;;;;;39.75;31.00;;;;;1.47;85.47;102586.31;5064409;28;46328;-64
2022/01/26 02:05:29;;;;;;;;;39.25;28.50;;;;;1.40;85.34;102586.97;5061630;28;45427;-70
2022/01/26 02:07:55;;;;;;;;;48.75;34.75;;;;;1.22;85.29;102570.00;5060826;28;45256;-68
2022/01/26 02:10:23;;;;;;;;;41.25;34.75;;;;;1.33;85.01;102580.69;5066296;28;45390;-70
2022/01/26 02:12:53;;;;;;;;;42.00;31.50;;;;;1.40;84.95;102590.41;5064156;28;46439;-69
2022/01/26 02:15:27;;;;;;;;;31.50;26.25;;;;;1.38;84.25;102593.81;5059657;28;45365;-64
2022/01/26 02:20:43;;;;;;;;;41.25;32.50;;;;;1.18;84.88;102565.56;5059074;28;45553;-68
2022/01/26 02:56:02;;;;;;;;;36.75;28.50;;;;;1.23;84.65;102574.34;5059022;28;45339;-66
2022/01/26 02:58:51;;;;;;;;;37.00;32.00;;;;;1.29;84.58;102571.94;5058979;28;45291;-66
2022/01/26 03:06:34;;;;;;;;;29.25;24.00;;;;;1.42;84.86;102559.34;5058977;28;45731;-67
2022/01/26 03:09:06;;;;;;;;;41.75;33.00;;;;;1.49;84.37;102555.22;5061081;28;45299;-62
2022/01/26 03:11:35;;;;;;;;;40.00;33.00;;;;;1.56;84.57;102560.63;5060780;28;45354;-68
2022/01/26 03:14:14;;;;;;;;;34.50;26.00;;;;;1.55;84.24;102547.59;5065915;28;45327;-68
2022/01/26 03:16:45;;;;;;;;;44.25;33.75;;;;;1.56;84.11;102550.25;5064792;28;45304;-68
2022/01/26 03:19:24;;;;;;;;;41.50;31.50;;;;;1.58;83.82;102558.97;5066740;28;45286;-68
2022/01/26 03:22:16;;;;;;;;;36.50;30.75;;;;;1.56;83.80;102564.94;5060757;28;45218;-68
2022/01/26 03:30:08;;;;;;;;;40.75;33.75;;;;;1.66;84.43;102553.13;5058939;28;45239;-67
2022/01/26 03:35:14;;;;;;;;;35.00;31.25;;;;;1.83;83.85;102545.81;5058911;28;45262;-67
2022/01/26 03:37:40;;;;;;;;;45.00;36.75;;;;;1.88;83.29;102537.31;5057954;28;46480;-65
2022/01/26 03:40:13;;;;;;;;;35.00;30.50;;;;;1.89;83.44;102533.88;5060504;28;45378;-68
2022/01/26 03:42:38;;;;;;;;;47.75;38.50;;;;;1.92;83.14;102538.28;5058976;28;45250;-68
2022/01/26 03:45:04;;;;;;;;;50.25;37.50;;;;;1.98;83.73;102541.06;5061172;28;45255;-69
2022/01/26 03:47:30;;;;;;;;;47.00;37.00;;;;;2.03;82.75;102546.34;5058348;28;45208;-67
2022/01/26 03:49:55;;;;;;;;;46.00;35.50;;;;;2.00;82.78;102536.78;5058536;28;45216;-68
2022/01/26 03:52:21;;;;;;;;;47.25;38.00;;;;;2.00;82.90;102548.88;5057908;28;45197;-68
2022/01/26 03:54:46;;;;;;;;;53.50;36.50;;;;;2.00;82.88;102552.34;5057931;28;45405;-69
2022/01/26 03:57:11;;;;;;;;;57.00;40.50;;;;;1.99;82.28;102552.28;5057594;28;46341;-68
2022/01/26 03:59:37;;;;;;;;;50.75;37.75;;;;;1.91;82.01;102536.53;5058248;28;45235;-69
2022/01/26 04:02:03;;;;;;;;;46.50;39.25;;;;;1.96;82.02;102542.72;5058667;28;45699;-69
2022/01/26 04:04:33;;;;;;;;;57.25;41.50;;;;;2.05;82.66;102552.47;5059023;28;45605;-62
2022/01/26 04:07:00;;;;;;;;;60.50;45.00;;;;;2.13;82.53;102544.88;5061246;28;47353;-61
2022/01/26 04:09:26;;;;;;;;;53.75;38.50;;;;;2.19;81.80;102545.94;5058750;28;45256;-67
2022/01/26 04:11:51;;;;;;;;;51.25;40.00;;;;;2.21;81.47;102548.56;5058515;28;45229;-68
2022/01/26 04:14:21;;;;;;;;;52.75;38.75;;;;;2.17;81.87;102550.22;5058005;28;45533;-68
2022/01/26 04:16:47;;;;;;;;;49.75;38.75;;;;;2.20;82.01;102539.03;5057894;28;47274;-68
2022/01/26 04:19:13;;;;;;;;;49.75;40.50;;;;;2.21;80.68;102537.31;5057773;28;45322;-64
2022/01/26 04:24:44;;;;;;;;;62.75;39.25;;;;;2.10;81.08;102532.69;5034717;28;46545;-62
2022/01/26 04:27:25;;;;;;;;;53.25;40.25;;;;;2.19;81.68;102540.75;5058949;28;46855;-66
2022/01/26 04:29:51;;;;;;;;;51.50;35.75;;;;;2.23;80.92;102543.44;5059849;28;45440;-67
2022/01/26 04:32:17;;;;;;;;;54.50;41.25;;;;;2.31;81.25;102549.69;5064522;28;45405;-70
2022/01/26 04:34:45;;;;;;;;;62.50;44.50;;;;;2.36;80.35;102545.50;5064676;28;45610;-69
2022/01/26 04:37:38;;;;;;;;;55.75;44.75;;;;;2.39;81.20;102534.28;5059905;28;47077;-66
2022/01/26 04:40:11;;;;;;;;;57.50;43.50;;;;;2.44;80.83;102537.88;5058175;28;45358;-67
2022/01/26 04:45:17;;;;;;;;;55.50;34.25;;;;;2.51;79.65;102538.94;5058786;28;45161;-67
2022/01/26 04:47:42;;;;;;;;;58.50;41.00;;;;;2.50;78.97;102534.56;5059232;28;45265;-66
2022/01/26 04:50:09;;;;;;;;;52.75;40.25;;;;;2.47;79.04;102536.25;5060041;28;45291;-66
2022/01/26 04:52:35;;;;;;;;;53.75;40.75;;;;;2.45;79.48;102537.94;5060997;28;45313;-68
2022/01/26 04:55:01;;;;;;;;;53.50;39.00;;;;;2.43;79.10;102533.53;5059820;28;45513;-63
2022/01/26 04:57:26;;;;;;;;;60.50;42.75;;;;;2.44;79.25;102538.78;5058612;28;45360;-68
2022/01/26 04:59:52;;;;;;;;;70.75;45.50;;;;;2.44;78.84;102533.59;5059205;28;45405;-66
2022/01/26 05:02:17;;;;;;;;;53.75;40.00;;;;;2.47;79.52;102522.38;5058597;28;45324;-68
2022/01/26 05:04:43;;;;;;;;;58.00;43.75;;;;;2.54;79.57;102526.88;5060767;28;45445;-68
2022/01/26 05:07:08;;;;;;;;;62.00;47.00;;;;;2.59;79.65;102527.00;5060770;28;45683;-69
2022/01/26 05:09:34;;;;;;;;;53.00;39.00;;;;;2.61;78.63;102538.31;5063489;28;45408;-69
2022/01/26 05:12:01;;;;;;;;;59.00;41.75;;;;;2.66;78.80;102538.44;5064965;28;45332;-67
2022/01/26 05:14:27;;;;;;;;;57.75;41.50;;;;;2.59;78.36;102516.63;5062188;28;45517;-69
2022/01/26 05:16:52;;;;;;;;;56.75;44.00;;;;;2.64;77.89;102528.00;5068055;28;45246;-70
2022/01/26 05:19:18;;;;;;;;;55.00;40.25;;;;;2.66;77.95;102533.25;5064599;28;45209;-66
2022/01/26 05:21:43;;;;;;;;;58.00;43.25;;;;;2.62;77.35;102529.69;5064712;28;45658;-62
2022/01/26 05:24:10;;;;;;;;;54.50;42.25;;;;;2.63;77.51;102536.63;5060429;28;45276;-65
2022/01/26 05:26:37;;;;;;;;;57.50;46.75;;;;;2.67;77.98;102529.81;5060039;28;46074;-63
2022/01/26 05:29:03;;;;;;;;;58.50;44.25;;;;;2.71;78.70;102529.03;5062080;28;45528;-63
2022/01/26 05:31:28;;;;;;;;;57.00;42.75;;;;;2.69;77.45;102521.19;5068547;28;45332;-65
2022/01/26 05:33:54;;;;;;;;;56.25;44.50;;;;;2.73;78.53;102523.03;5063707;28;45193;-68
2022/01/26 05:36:20;;;;;;;;;66.75;48.25;;;;;2.75;78.52;102523.94;5059864;28;46408;-67
2022/01/26 05:38:45;;;;;;;;;63.00;46.50;;;;;2.77;76.88;102511.84;5063097;28;45434;-66
2022/01/26 05:41:11;;;;;;;;;59.75;44.00;;;;;2.82;76.96;102508.47;5063765;28;45323;-67
2022/01/26 05:43:37;;;;;;;;;51.50;41.00;;;;;2.77;76.85;102511.00;5062200;28;45493;-67
2022/01/26 05:46:08;;;;;;;;;60.00;43.00;;;;;2.77;77.37;102509.25;5061172;28;46029;-64
2022/01/26 05:48:37;;;;;;;;;63.25;48.00;;;;;2.78;77.21;102510.16;5061025;28;45280;-67
2022/01/26 05:51:07;;;;;;;;;60.75;47.25;;;;;2.81;77.14;102519.72;5062252;28;45236;-67
2022/01/26 05:53:34;;;;;;;;;57.75;46.25;;;;;2.85;77.28;102521.56;5064596;28;45544;-68
2022/01/26 05:55:59;;;;;;;;;63.75;44.50;;;;;2.84;76.63;102519.78;5066326;28;45253;-68
2022/01/26 05:58:25;;;;;;;;;51.75;41.25;;;;;2.82;76.98;102508.47;5061562;28;45402;-63
2022/01/26 06:00:51;;;;;;;;;61.00;45.25;;;;;2.76;76.69;102506.63;5060234;28;45426;-61
2022/01/26 06:03:16;;;;;;;;;62.25;46.00;;;;;2.77;77.10;102518.78;5059598;28;45609;-62
2022/01/26 06:05:42;;;;;;;;;60.50;44.75;;;;;2.74;76.29;102519.56;5059506;28;46032;-59
2022/01/26 06:08:08;;;;;;;;;58.00;42.25;;;;;2.72;76.53;102525.59;5058808;28;45263;-68
2022/01/26 06:10:33;;;;;;;;;62.00;46.00;;;;;2.68;75.88;102527.22;5060477;28;45287;-63
2022/01/26 06:12:59;;;;;;;;;57.75;44.00;;;;;2.66;76.99;102530.66;5060492;28;45422;-65
2022/01/26 06:15:24;;;;;;;;;59.00;44.50;;;;;2.61;76.68;102533.13;5060438;28;45339;-65
2022/01/26 06:17:50;;;;;;;;;58.75;46.25;;;;;2.59;76.32;102535.66;5060300;28;45316;-67
2022/01/26 06:20:15;;;;;;;;;65.00;49.00;;;;;2.61;77.35;102533.13;5060509;28;45397;-68
2022/01/26 06:22:41;;;;;;;;;61.75;45.25;;;;;2.62;77.09;102534.88;5059925;28;45407;-64
2022/01/26 06:25:07;;;;;;;;;61.75;49.00;;;;;2.64;77.52;102533.19;5060963;28;48151;-61
2022/01/26 06:27:35;;;;;;;;;61.25;46.25;;;;;2.73;76.81;102549.00;5066263;28;45442;-60
2022/01/26 06:30:02;;;;;;;;;66.50;51.00;;;;;2.77;76.94;102561.22;5060349;28;45354;-62
2022/01/26 06:32:28;;;;;;;;;59.50;46.50;;;;;2.78;76.13;102568.19;5058782;28;45462;-60
2022/01/26 06:34:55;;;;;;;;;71.25;50.50;;;;;2.78;77.29;102576.00;5058367;28;47044;-63
2022/01/26 06:37:20;;;;;;;;;60.50;44.00;;;;;2.77;76.54;102582.03;5057997;28;45444;-62
2022/01/26 06:39:46;;;;;;;;;61.25;44.25;;;;;2.77;77.28;102575.97;5058547;28;45355;-62
2022/01/26 06:42:14;;;;;;;;;65.00;48.00;;;;;2.78;77.21;102573.38;5059713;28;45282;-58
2022/01/26 06:45:07;;;;;;;;;56.75;44.00;;;;;2.74;76.70;102581.94;5060087;28;45220;-68
2022/01/26 06:47:49;;;;;;;;;67.25;48.75;;;;;2.70;77.01;102589.66;5059838;28;45336;-64
2022/01/26 06:50:15;;;;;;;;;64.00;48.25;;;;;2.66;76.28;102595.63;5059785;28;45276;-66
2022/01/26 06:52:43;;;;;;;;;61.25;47.50;;;;;2.62;77.67;102592.91;5060395;28;45401;-68
2022/01/26 06:55:09;;;;;;;;;60.25;45.00;;;;;2.61;77.40;102592.88;5059481;28;46360;-67
2022/01/26 06:57:35;;;;;;;;;66.75;47.25;;;;;2.58;77.91;102592.81;5066083;28;45324;-67
2022/01/26 07:00:00;;;;;;;;;65.50;50.50;;;;;2.60;77.78;102593.72;5068938;28;45372;-69
2022/01/26 07:02:26;;;;;;;;;64.25;47.50;;;;;2.61;77.70;102600.69;5062568;28;45150;-67
2022/01/26 07:04:51;;;;;;;;;62.50;48.00;;;;;2.64;77.89;102595.56;5058166;28;46437;-68
2022/01/26 07:07:16;;;;;;;;;62.75;45.75;;;;;2.63;77.93;102597.25;5057996;28;45401;-66
2022/01/26 07:09:42;;;;;;;;;61.75;46.25;;;;;2.66;77.24;102595.63;5057186;28;45288;-67
2022/01/26 07:12:08;;;;;;;;;57.25;44.00;;;;;2.67;76.49;102592.19;5058048;28;45220;-66
2022/01/26 07:22:35;;;;;;;;;70.00;50.00;;;;;2.68;76.79;102573.16;5057806;28;45243;-63
2022/01/26 07:25:01;;;;;;;;;63.75;47.75;;;;;2.68;77.94;102581.81;5055507;28;46042;-62
2022/01/26 07:27:26;;;;;;;;;67.00;48.50;;;;;2.63;77.10;102573.88;5056516;28;45307;-68
2022/01/26 07:29:52;;;;;;;;;66.50;48.00;;;;;2.71;77.53;102581.00;5057720;28;45276;-62
2022/01/26 07:32:18;;;;;;;;;67.50;51.00;;;;;2.70;77.12;102576.66;5058117;28;45561;-64
2022/01/26 07:34:44;;;;;;;;;64.00;47.00;;;;;2.74;77.66;102597.53;5058157;28;47101;-65
2022/01/26 07:37:13;;;;;;;;;64.25;49.00;;;;;2.73;77.23;102607.91;5057190;28;45372;-63
2022/01/26 07:39:48;;;;;;;;;64.25;47.50;;;;;2.74;77.29;102597.53;5058105;28;45351;-60
2022/01/26 07:42:14;;;;;;;;;65.00;49.00;;;;;2.76;77.30;102592.41;5057914;28;45405;-60
2022/01/26 07:44:40;;;;;;;;;70.00;48.50;;;;;2.80;76.96;102590.75;5057535;28;46107;-61
2022/01/26 07:47:06;;;;;;;;;67.25;51.75;;;;;2.84;77.10;102602.97;5059565;28;45239;-70
2022/01/26 07:49:31;;;;;;;;;69.00;50.25;;;;;2.88;77.43;102599.59;5058956;28;45366;-68
2022/01/26 07:51:57;;;;;;;;;65.75;47.75;;;;;2.96;76.97;102597.19;5061575;28;45407;-73
2022/01/26 07:54:23;;;;;;;;;64.75;49.50;;;;;2.98;77.06;102605.91;5063360;28;45465;-73
2022/01/26 07:56:49;;;;;;;;;68.00;48.25;;;;;2.99;76.65;102605.94;5064392;28;44828;-73
2022/01/26 07:59:14;;;;;;;;;67.00;51.50;;;;;3.00;76.25;102619.84;5065100;28;45351;-75
2022/01/26 08:01:39;;;;;;;;;70.50;51.25;;;;;3.00;76.26;102618.09;5062207;28;45306;-73
2022/01/26 08:04:05;;;;;;;;;55.75;47.00;;;;;2.97;75.95;102625.81;5055842;28;47537;-68
2022/01/26 08:06:30;;;;;;;;;63.00;48.25;;;;;2.90;76.84;102606.63;5056559;28;45490;-63
2022/01/26 08:08:56;;;;;;;;;63.50;47.25;;;;;2.97;76.67;102609.34;5049265;28;45673;-68
2022/01/26 08:11:21;;;;;;;;;66.00;50.25;;;;;2.95;76.53;102591.09;5051657;28;45383;-64
2022/01/26 08:13:47;;;;;;;;;50.50;37.50;;;;;3.01;76.90;102582.59;5053053;28;46078;-70
2022/01/26 08:16:12;;;;;;;;;66.00;50.00;;;;;3.07;76.19;102572.34;5054526;28;45526;-66
2022/01/26 08:18:37;;;;;;;;;63.75;47.25;;;;;3.19;77.19;102595.16;5040849;28;45447;-73
2022/01/26 08:21:06;;;;;;;;;62.25;45.50;;;;;3.20;75.85;102597.78;5025891;28;45411;-66
2022/01/26 08:23:32;;;;;;;;;66.00;49.00;;;;;3.18;75.37;102577.75;5043358;28;46086;-71
2022/01/26 08:25:59;;;;;;;;;61.00;46.25;;;;;3.24;75.88;102584.84;5049642;28;45455;-69
2022/01/26 08:28:34;;;;;;;;;57.50;45.75;;;;;3.27;75.58;102580.59;5054865;28;45423;-75
2022/01/26 08:30:59;;;;;;;;;66.25;49.75;;;;;3.29;76.07;102572.81;5054872;28;45399;-69
2022/01/26 08:33:25;;;;;;;;;68.25;47.00;;;;;3.36;76.27;102582.50;5055969;28;46965;-73
2022/01/26 08:35:51;;;;;;;;;64.00;44.25;;;;;3.41;74.88;102595.63;5058373;28;45267;-66
2022/01/26 08:38:16;;;;;;;;;61.50;49.25;;;;;3.45;75.94;102585.31;5057943;28;44796;-73
2022/01/26 08:40:43;;;;;;;;;68.50;50.50;;;;;3.55;75.52;102575.09;5043392;28;45881;-66
2022/01/26 08:43:09;;;;;;;;;67.75;50.25;;;;;3.62;75.14;102574.38;5050985;28;45421;-73
2022/01/26 08:45:34;;;;;;;;;64.25;51.25;;;;;3.67;75.01;102577.09;5036562;28;45331;-73
2022/01/26 08:48:00;;;;;;;;;67.00;50.25;;;;;3.78;75.01;102605.13;5039187;28;45676;-77
2022/01/26 08:50:25;;;;;;;;;69.75;52.00;;;;;3.85;75.10;102605.25;5036074;28;45341;-69
2022/01/26 08:52:51;;;;;;;;;56.50;44.00;;;;;3.84;74.22;102601.75;5036408;28;45978;-72
2022/01/26 08:55:16;;;;;;;;;57.25;43.25;;;;;3.86;74.16;102599.19;5036253;28;45382;-74
2022/01/26 08:57:42;;;;;;;;;55.00;45.75;;;;;3.81;74.92;102586.06;5035541;28;45294;-72
2022/01/26 09:00:09;;;;;;;;;49.25;37.75;;;;;3.91;74.17;102608.84;5037331;28;45541;-67
2022/01/26 09:02:35;;;;;;;;;60.25;42.75;;;;;3.94;74.45;102614.09;5038099;28;45385;-74
2022/01/26 09:05:04;;;;;;;;;59.25;45.50;;;;;3.99;74.19;102615.91;5038806;28;45375;-69
2022/01/26 09:07:29;;;;;;;;;64.25;47.25;;;;;3.99;74.39;102598.59;5039273;28;45296;-73
2022/01/26 09:10:00;;;;;;;;;52.00;45.00;;;;;4.06;74.17;102599.56;5041735;28;45539;-75
2022/01/26 09:12:26;;;;;;;;;49.75;36.25;;;;;4.03;73.71;102608.22;5040836;28;45682;-72
2022/01/26 09:14:52;;;;;;;;;66.75;46.50;;;;;4.02;73.41;102622.09;5036984;28;45623;-69
2022/01/26 09:17:19;;;;;;;;;55.25;41.00;;;;;4.03;73.79;102633.34;5036064;28;45404;-75
2022/01/26 09:19:45;;;;;;;;;54.25;41.75;;;;;3.94;73.25;102634.94;5038642;28;45217;-69
2022/01/26 09:22:13;;;;;;;;;60.00;43.00;;;;;3.87;73.86;102632.19;5039345;28;46299;-72
2022/01/26 09:24:40;;;;;;;;;61.50;46.75;;;;;3.85;74.29;102629.53;5041024;28;45534;-71
2022/01/26 09:27:07;;;;;;;;;62.00;48.50;;;;;3.87;73.62;102635.66;5037606;28;45276;-64
2022/01/26 09:29:34;;;;;;;;;60.50;45.25;;;;;3.66;74.12;102602.22;5036466;28;45450;-63
2022/01/26 09:32:00;;;;;;;;;66.75;47.75;;;;;3.94;74.85;102642.75;5036962;28;47162;-67
2022/01/26 09:34:29;;;;;;;;;63.25;46.75;;;;;3.99;74.99;102649.78;5037482;28;45261;-68
2022/01/26 09:36:55;;;;;;;;;62.00;46.50;;;;;4.05;74.22;102636.88;5038507;28;45455;-65
2022/01/26 09:39:22;;;;;;;;;63.00;48.25;;;;;4.10;74.30;102640.44;5040906;28;45170;-67
2022/01/26 09:41:49;;;;;;;;;66.00;45.00;;;;;4.10;73.00;102640.44;5043561;28;45073;-72
2022/01/26 09:44:17;;;;;;;;;66.00;48.50;;;;;4.07;73.45;102640.38;5044698;28;45550;-62
2022/01/26 09:46:43;;;;;;;;;60.50;47.00;;;;;4.04;73.31;102656.84;5038999;28;45243;-70
2022/01/26 09:49:09;;;;;;;;;61.75;46.25;;;;;4.06;74.08;102665.56;5037070;28;45644;-73
2022/01/26 09:51:42;;;;;;;;;59.75;45.75;;;;;4.00;74.08;102648.91;5041782;28;45376;-73
2022/01/26 09:54:12;;;;;;;;;58.50;44.25;;;;;4.10;73.58;102666.50;5042434;28;45337;-73
2022/01/26 09:56:38;;;;;;;;;60.25;46.00;;;;;4.08;73.12;102666.47;5039755;28;45379;-71
2022/01/26 09:59:06;;;;;;;;;60.00;45.25;;;;;4.08;73.84;102666.47;5038190;28;45386;-76
2022/01/26 10:01:49;;;;;;;;;51.00;39.50;;;;;4.03;73.10;102670.72;5041187;28;46419;-73
2022/01/26 10:04:34;;;;;;;;;55.50;40.50;;;;;3.98;73.78;102674.06;5042213;28;45254;-77
2022/01/26 10:07:16;;;;;;;;;57.75;44.25;;;;;3.95;74.06;102675.75;5039516;28;45299;-75
2022/01/26 10:10:02;;;;;;;;;64.50;47.75;;;;;3.99;74.98;102662.78;5038166;28;45450;-70
2022/01/26 10:15:32;;;;;;;;;60.00;44.75;;;;;4.06;74.29;102662.06;5039896;28;45504;-72
2022/01/26 10:18:10;;;;;;;;;68.00;49.00;;;;;3.82;74.60;102615.59;5040259;28;45331;-76
2022/01/26 10:20:50;;;;;;;;;60.50;46.50;;;;;4.20;74.71;102663.22;5041766;28;45162;-77
2022/01/26 10:23:25;;;;;;;;;69.75;51.50;;;;;4.22;74.20;102666.75;5042399;28;46243;-75
2022/01/26 10:26:01;;;;;;;;;65.25;47.50;;;;;4.20;74.62;102665.81;5040383;28;45413;-72
2022/01/26 10:28:27;;;;;;;;;59.00;46.00;;;;;4.18;74.46;102664.91;5045479;28;45364;-73
2022/01/26 10:30:52;;;;;;;;;66.00;48.75;;;;;4.20;74.70;102662.34;5044311;28;45251;-73
2022/01/26 10:33:18;;;;;;;;;59.75;46.25;;;;;4.30;74.69;102658.22;5038029;28;45162;-67
2022/01/26 10:35:44;;;;;;;;;65.50;45.25;;;;;4.33;74.65;102645.25;5037051;28;45336;-77
2022/01/26 10:38:10;;;;;;;;;81.67;57.33;;;;;4.18;74.43;102612.81;5038725;28;45312;-75
2022/01/26 10:40:39;;;;;;;;;90.00;80.00;;;;;4.44;75.03;102653.25;5040007;28;45615;-77
2022/01/26 10:43:13;;;;;;;;;80.33;61.00;;;;;4.49;73.85;102681.19;5041300;28;45550;-76
2022/01/26 10:48:29;;;;;;;;;59.50;44.00;;;;;4.55;74.07;102648.25;5038958;28;45265;-78
2022/01/26 10:53:49;;;;;;;;;59.25;48.00;;;;;4.66;73.53;102644.13;5039691;28;45420;-78
2022/01/26 10:56:16;;;;;;;;;53.25;41.25;;;;;4.62;73.37;102648.38;5040467;28;45291;-74
2022/01/26 10:58:41;;;;;;;;;59.75;42.00;;;;;4.63;73.89;102641.44;5038031;28;45407;-76
2022/01/26 11:01:07;;;;;;;;;57.25;43.50;;;;;4.63;73.92;102633.63;5038326;28;45237;-80
2022/01/26 11:03:33;;;;;;;;;61.75;46.00;;;;;4.63;73.30;102655.34;5038826;28;45311;-76
2022/01/26 11:06:03;;;;;;;;;67.25;46.75;;;;;4.61;74.42;102640.53;5037551;28;45413;-68
2022/01/26 11:08:30;;;;;;;;;62.50;47.00;;;;;4.64;73.89;102630.16;5038612;28;45332;-66
2022/01/26 11:10:56;;;;;;;;;63.25;46.25;;;;;4.67;73.90;102628.47;5042048;28;45154;-68
2022/01/26 11:13:35;;;;;;;;;60.25;43.00;;;;;4.77;73.85;102639.06;5038158;28;45312;-65
2022/01/26 11:16:12;;;;;;;;;62.00;46.50;;;;;4.81;73.30;102630.47;5037787;28;45459;-69
2022/01/26 11:18:46;;;;;;;;;64.25;47.75;;;;;4.88;73.39;102637.56;5039113;28;45371;-70
2022/01/26 11:21:23;;;;;;;;;64.75;47.75;;;;;4.83;73.00;102624.41;5042739;28;45576;-71
2022/01/26 11:23:50;;;;;;;;;61.75;45.75;;;;;4.87;73.79;102614.03;5037668;28;45524;-74
2022/01/26 11:26:24;;;;;;;;;62.75;49.00;;;;;4.89;73.75;102617.53;5038223;28;45242;-73
2022/01/26 11:28:50;;;;;;;;;59.50;41.50;;;;;4.98;73.46;102609.88;5038236;28;45202;-75
2022/01/26 11:31:17;;;;;;;;;53.50;41.75;;;;;5.01;73.06;102620.34;5038516;28;45340;-74
2022/01/26 11:33:43;;;;;;;;;54.25;41.25;;;;;4.96;73.08;102616.78;5043240;28;45242;-77
2022/01/26 11:36:14;;;;;;;;;59.00;45.50;;;;;4.88;73.36;102613.19;5038996;28;45963;-78
2022/01/26 11:47:00;;;;;;;;;61.75;45.50;;;;;5.07;73.32;102599.56;5042226;28;45538;-75
2022/01/26 11:49:47;;;;;;;;;70.00;55.00;;;;;5.17;73.35;102591.88;5038057;28;45347;-66
2022/01/26 11:52:21;;;;;;;;;69.00;51.50;;;;;5.25;72.95;102580.72;5037635;28;45286;-69
2022/01/26 11:54:53;;;;;;;;;58.50;46.50;;;;;5.33;73.29;102575.63;5036071;28;48543;-69
2022/01/26 11:57:22;;;;;;;;;52.00;39.00;;;;;5.37;72.53;102574.81;5042314;28;45230;-64
2022/01/26 12:00:02;;;;;;;;;59.25;46.00;;;;;5.33;71.71;102573.00;5038212;28;45400;-66
2022/01/26 12:02:53;;;;;;;;;65.25;48.75;;;;;5.31;72.54;102566.00;5038849;28;45304;-63
2022/01/26 12:05:22;;;;;;;;;69.00;51.50;;;;;5.33;72.42;102551.25;5044975;28;46441;-73
2022/01/26 12:08:00;;;;;;;;;60.00;43.50;;;;;5.39;72.39;102541.78;5045319;28;45338;-71
2022/01/26 12:10:29;;;;;;;;;59.00;44.25;;;;;5.46;72.88;102553.16;5038841;28;45401;-72
2022/01/26 12:13:09;;;;;;;;;54.50;44.00;;;;;5.50;71.99;102564.53;5039437;28;45206;-76
2022/01/26 12:15:48;;;;;;;;;64.00;45.75;;;;;5.50;71.71;102554.09;5038005;28;47046;-77
2022/01/26 12:35:19;;;;;;;;;53.25;39.25;;;;;5.32;72.18;102550.38;5038683;28;45469;-76
2022/01/26 12:37:57;;;;;;;;;53.00;42.00;;;;;5.30;72.59;102545.97;5038327;28;47321;-77
2022/01/26 12:43:15;;;;;;;;;52.75;42.75;;;;;5.24;72.09;102557.19;5038157;28;45329;-76
2022/01/26 12:45:41;;;;;;;;;58.00;45.25;;;;;5.26;72.16;102555.50;5038824;28;45420;-77
2022/01/26 12:48:09;;;;;;;;;58.00;45.00;;;;;5.30;71.82;102559.94;5035833;28;46262;-75
2022/01/26 12:50:37;;;;;;;;;58.00;44.25;;;;;5.30;72.09;102564.25;5036564;28;45233;-71
2022/01/26 12:53:03;;;;;;;;;58.00;44.25;;;;;5.32;72.11;102566.03;5035769;28;45313;-67
2022/01/26 12:55:36;;;;;;;;;58.00;43.50;;;;;5.34;72.20;102568.66;5034914;28;45158;-71
2022/01/26 12:58:03;;;;;;;;;58.00;44.00;;;;;5.31;71.54;102563.41;5035940;28;45318;-74
2022/01/26 13:00:42;;;;;;;;;60.50;45.75;;;;;5.31;72.08;102550.34;5034202;28;46301;-67
2022/01/26 13:03:13;;;;;;;;;57.00;45.00;;;;;5.37;72.34;102542.59;5038671;28;45388;-78
2022/01/26 13:05:39;;;;;;;;;45.75;36.75;;;;;5.43;72.04;102532.25;5035735;28;45317;-79
2022/01/26 13:08:06;;;;;;;;;63.25;47.75;;;;;5.41;71.81;102537.44;5036190;28;45278;-67
2022/01/26 13:10:32;;;;;;;;;65.00;47.75;;;;;5.36;71.88;102526.09;5035982;28;45375;-79
2022/01/26 13:13:21;;;;;;;;;55.75;42.25;;;;;5.46;71.80;102536.63;5035830;28;45357;-77
2022/01/26 13:15:56;;;;;;;;;61.75;46.50;;;;;5.40;71.51;102527.88;5035582;28;45395;-75
2022/01/26 13:21:47;;;;;;;;;60.25;48.00;;;;;5.29;71.82;102532.03;5036036;28;45320;-77
2022/01/26 13:27:04;;;;;;;;;61.50;45.25;;;;;5.16;72.47;102538.84;5041017;28;45440;-77
2022/01/26 13:37:17;;;;;;;;;60.00;46.50;;;;;5.26;71.69;102532.00;5039707;28;45572;-77
2022/01/26 13:40:04;;;;;;;;;62.75;46.75;;;;;5.19;72.05;102532.78;5039445;28;46104;-77
2022/01/26 13:48:01;;;;;;;;;54.00;44.25;;;;;4.94;72.49;102533.31;5040077;28;45373;-79
2022/01/26 13:50:54;;;;;;;;;58.25;44.50;;;;;4.95;72.50;102536.78;5039962;28;45254;-74